Time;durP1;ratioP1;P1;durP2;ratioP2;P2;SDS_P1;SDS_P2;PMS_P1;PMS_P2;Temp;Humidity;BMP_temperature;BMP_pressure;BME280_temperature;BME280_humidity;BME280_pressure;Samples;Min_cycle;Max_cycle;Signal;HPM_P1;HPM_P2
2021/03/26 00:00:23;;;;;;;119.77;58.93;;;;;;;0.23;66.49;99448.46;2179208;81;21173;-78
2021/03/26 00:03:26;;;;;;;104.07;58.93;;;;;;;0.19;66.54;99447.78;2178541;81;21129;-79
2021/03/26 00:06:27;;;;;;;117.00;61.97;;;;;;;0.14;66.73;99442.76;2179390;81;21130;-79
2021/03/26 00:09:28;;;;;;;108.47;59.67;;;;;;;0.10;66.93;99441.68;2179492;81;21126;-78
2021/03/26 00:12:29;;;;;;;117.63;61.83;;;;;;;0.05;66.84;99441.79;2179388;81;21172;-78
2021/03/26 00:15:30;;;;;;;124.17;67.20;;;;;;;-0.02;67.06;99435.36;2180308;81;21252;-78
2021/03/26 00:18:31;;;;;;;135.17;70.53;;;;;;;-0.02;67.34;99439.60;2179809;81;21114;-79
2021/03/26 00:21:32;;;;;;;142.93;69.07;;;;;;;0.02;67.86;99444.17;2180235;81;21138;-78
2021/03/26 00:24:33;;;;;;;123.23;64.23;;;;;;;0.04;67.75;99446.83;2180458;81;21157;-78
2021/03/26 00:27:36;;;;;;;121.13;65.70;;;;;;;0.01;67.45;99446.64;2180136;81;21126;-79
2021/03/26 00:30:37;;;;;;;131.87;69.37;;;;;;;-0.04;67.23;99442.07;2179683;81;21272;-78
2021/03/26 00:33:38;;;;;;;129.97;70.50;;;;;;;-0.11;67.38;99437.34;2179837;81;21133;-79
2021/03/26 00:36:39;;;;;;;127.53;66.60;;;;;;;-0.12;67.79;99438.53;2179128;81;21110;-79
2021/03/26 00:39:41;;;;;;;131.83;65.97;;;;;;;-0.13;68.15;99435.08;2178913;81;21272;-79
2021/03/26 00:42:42;;;;;;;122.43;67.07;;;;;;;-0.14;68.06;99434.59;2179087;81;21138;-79
2021/03/26 00:45:43;;;;;;;123.63;66.40;;;;;;;-0.15;67.79;99433.20;2179014;81;21513;-79
2021/03/26 00:48:44;;;;;;;141.20;71.17;;;;;;;-0.19;68.03;99429.56;2178594;81;21254;-78
2021/03/26 00:51:45;;;;;;;132.63;67.20;;;;;;;-0.20;67.64;99433.31;2178360;81;21146;-79
2021/03/26 00:54:46;;;;;;;135.67;72.50;;;;;;;-0.23;66.92;99427.59;2178723;81;21110;-79
2021/03/26 00:57:47;;;;;;;148.73;73.17;;;;;;;-0.27;67.75;99432.44;2178932;81;21141;-80
2021/03/26 01:00:48;;;;;;;141.93;70.97;;;;;;;-0.24;68.14;99424.93;2179432;81;21149;-79
2021/03/26 01:03:49;;;;;;;129.20;70.60;;;;;;;-0.24;68.55;99427.10;2179252;81;21399;-79
2021/03/26 01:06:50;;;;;;;136.80;71.57;;;;;;;-0.26;68.67;99426.12;2179243;81;21106;-79
2021/03/26 01:09:51;;;;;;;136.53;71.70;;;;;;;-0.25;68.35;99431.73;2179002;81;21197;-79
2021/03/26 01:12:53;;;;;;;141.77;72.97;;;;;;;-0.25;68.31;99429.17;2179363;82;21138;-79
2021/03/26 01:15:54;;;;;;;140.43;72.20;;;;;;;-0.27;68.12;99427.30;2179429;81;21158;-80
2021/03/26 01:18:55;;;;;;;137.27;69.33;;;;;;;-0.27;68.02;99428.19;2179200;81;21245;-79
2021/03/26 01:21:56;;;;;;;142.93;74.60;;;;;;;-0.29;67.87;99429.77;2179975;81;21148;-79
2021/03/26 01:24:57;;;;;;;143.17;73.50;;;;;;;-0.28;67.84;99435.39;2179469;81;21428;-79
2021/03/26 01:27:58;;;;;;;140.23;72.10;;;;;;;-0.24;68.44;99433.52;2179544;81;21145;-78
2021/03/26 01:30:59;;;;;;;156.13;73.97;;;;;;;-0.18;68.72;99434.30;2179483;81;21150;-79
2021/03/26 01:34:02;;;;;;;138.77;74.37;;;;;;;-0.20;68.55;99430.35;2179524;81;21142;-81
2021/03/26 01:37:03;;;;;;;141.97;73.90;;;;;;;-0.20;68.64;99430.35;2179479;82;21150;-79
2021/03/26 01:40:04;;;;;;;162.03;84.57;;;;;;;-0.23;68.69;99431.44;2179135;81;21138;-77
2021/03/26 01:43:05;;;;;;;170.03;91.17;;;;;;;0.06;75.25;99437.15;2178849;81;21149;-78
2021/03/26 01:46:06;;;;;;;1330.83;207.13;;;;;;;4.35;78.48;99425.30;2179075;81;21273;-76
2021/03/26 01:49:08;;;;;;;152.60;70.93;;;;;;;5.79;63.36;99414.22;2177902;82;21141;-78
2021/03/26 01:52:09;;;;;;;133.13;71.33;;;;;;;4.32;61.02;99423.83;2178800;81;21450;-79
2021/03/26 01:55:10;;;;;;;128.63;72.07;;;;;;;3.20;60.83;99421.45;2178442;81;21126;-79
2021/03/26 01:58:11;;;;;;;135.00;73.90;;;;;;;2.37;61.36;99424.02;2177785;81;21146;-78
2021/03/26 02:01:12;;;;;;;124.97;69.13;;;;;;;1.84;62.38;99429.73;2177989;81;21170;-78
2021/03/26 02:04:13;;;;;;;132.67;73.43;;;;;;;1.44;63.08;99433.41;2178092;81;21400;-78
2021/03/26 02:07:14;;;;;;;131.33;73.03;;;;;;;1.11;63.65;99429.80;2178214;82;21261;-80
2021/03/26 02:10:15;;;;;;;135.47;72.33;;;;;;;0.89;64.38;99428.55;2179099;81;21174;-78
2021/03/26 02:13:16;;;;;;;159.10;77.50;;;;;;;0.75;64.72;99431.06;2179694;81;21368;-78
2021/03/26 02:16:17;;;;;;;127.30;71.80;;;;;;;0.76;66.50;99433.72;2178916;81;21723;-79
2021/03/26 02:19:18;;;;;;;125.63;69.60;;;;;;;0.71;65.58;99434.25;2179551;81;21125;-78
2021/03/26 02:22:19;;;;;;;133.10;71.60;;;;;;;0.58;65.84;99432.23;2179752;81;21146;-79
2021/03/26 02:25:20;;;;;;;137.73;72.63;;;;;;;0.48;66.11;99432.87;2179445;82;21134;-78
2021/03/26 02:28:21;;;;;;;195.13;75.73;;;;;;;0.41;66.16;99424.30;2179097;81;21126;-79
2021/03/26 02:31:22;;;;;;;134.67;71.07;;;;;;;0.34;66.36;99435.88;2174778;81;21166;-79
2021/03/26 02:34:23;;;;;;;271.83;81.53;;;;;;;0.27;66.58;99428.59;2161433;82;21134;-78
2021/03/26 02:37:25;;;;;;;154.40;73.67;;;;;;;0.24;67.05;99432.27;2161780;82;21249;-80
2021/03/26 02:40:26;;;;;;;136.27;73.13;;;;;;;0.20;67.17;99431.19;2161969;82;21143;-78
2021/03/26 02:43:27;;;;;;;148.97;75.90;;;;;;;0.16;67.27;99432.19;2162444;82;21424;-78
2021/03/26 02:46:28;;;;;;;139.27;72.97;;;;;;;0.13;67.42;99430.72;2161789;82;21825;-78
2021/03/26 02:49:29;;;;;;;134.47;69.77;;;;;;;0.11;67.29;99426.77;2162419;82;21126;-78
2021/03/26 02:52:30;;;;;;;127.03;68.60;;;;;;;0.09;67.10;99436.05;2162044;82;21135;-79
2021/03/26 02:55:31;;;;;;;131.33;70.90;;;;;;;0.06;67.02;99438.83;2161805;82;21138;-79
2021/03/26 02:58:34;;;;;;;129.73;68.60;;;;;;;0.04;67.55;99436.56;2161540;82;21262;-80
2021/03/26 03:01:35;;;;;;;131.70;66.57;;;;;;;0.03;67.51;99439.52;2161682;82;21162;-78
2021/03/26 03:04:41;;;;;;;137.50;68.10;;;;;;;0.01;67.80;99438.54;2161869;82;21138;-77
2021/03/26 03:07:40;;;;;;;129.87;68.20;;;;;;;-0.03;67.85;99440.00;2160842;82;21991;-79
2021/03/26 03:10:44;;;;;;;171.00;71.73;;;;;;;-0.05;68.12;99440.69;2161815;82;21460;-78
2021/03/26 03:13:45;;;;;;;151.97;69.27;;;;;;;-0.03;68.28;99437.83;2161362;82;21122;-79
2021/03/26 03:16:46;;;;;;;130.73;67.47;;;;;;;-0.04;68.32;99436.94;2161363;82;21122;-78
2021/03/26 03:19:51;;;;;;;218.60;75.57;;;;;;;-0.02;68.38;99441.77;2161714;82;21254;-77
2021/03/26 03:22:52;;;;;;;122.20;65.15;;;;;;;-0.04;68.49;99438.62;2161665;82;21274;-78
2021/03/26 03:25:53;;;;;;;118.60;63.97;;;;;;;-0.08;68.08;99438.82;2161860;82;21115;-78
2021/03/26 03:28:54;;;;;;;132.80;68.70;;;;;;;-0.13;68.32;99432.52;2162002;82;21424;-78
2021/03/26 03:31:55;;;;;;;127.67;66.50;;;;;;;-0.11;68.02;99443.77;2160517;82;21289;-78
2021/03/26 03:34:56;;;;;;;158.47;81.47;;;;;;;-0.12;68.12;99444.55;2161520;82;21265;-79
2021/03/26 03:37:57;;;;;;;159.90;83.00;;;;;;;0.92;80.64;99448.41;2162674;82;21261;-79
2021/03/26 03:40:58;;;;;;;126.67;68.47;;;;;;;5.29;80.03;99432.47;2161993;82;21269;-78
2021/03/26 03:44:01;;;;;;;128.33;69.33;;;;;;;6.34;64.00;99426.37;2161125;82;21244;-78
2021/03/26 03:47:02;;;;;;;140.50;69.60;;;;;;;4.81;60.51;99439.86;2160865;82;21265;-78
2021/03/26 03:50:03;;;;;;;129.43;70.77;;;;;;;3.54;60.17;99445.09;2160525;82;21292;-79
2021/03/26 03:53:05;;;;;;;372.50;81.67;;;;;;;2.64;60.87;99452.08;2160956;82;21249;-79
2021/03/26 03:56:06;;;;;;;137.67;71.87;;;;;;;2.00;61.89;99461.47;2160823;82;21095;-78
2021/03/26 03:59:07;;;;;;;138.73;74.13;;;;;;;1.54;62.79;99461.44;2161351;82;21400;-78
2021/03/26 04:02:08;;;;;;;132.40;72.40;;;;;;;1.17;63.51;99457.16;2161693;82;21261;-78
2021/03/26 04:05:09;;;;;;;134.93;72.20;;;;;;;0.94;64.03;99458.38;2161582;82;21143;-79
2021/03/26 04:08:10;;;;;;;139.37;72.03;;;;;;;0.75;64.34;99464.47;2161244;82;21392;-79
2021/03/26 04:11:11;;;;;;;133.23;74.10;;;;;;;0.52;64.81;99466.54;2161042;82;21134;-79
2021/03/26 04:14:12;;;;;;;195.30;74.63;;;;;;;0.35;65.13;99468.47;2161314;82;21241;-79
2021/03/26 04:17:13;;;;;;;194.37;75.37;;;;;;;0.29;65.57;99468.98;2160132;82;21111;-78
2021/03/26 04:20:14;;;;;;;139.53;71.83;;;;;;;0.25;65.87;99471.27;2160362;82;21153;-78
2021/03/26 04:23:15;;;;;;;212.00;81.57;;;;;;;0.20;66.05;99473.95;2160121;82;21253;-79
2021/03/26 04:26:16;;;;;;;430.17;95.40;;;;;;;0.14;66.47;99478.70;2160630;82;21130;-78
2021/03/26 04:29:17;;;;;;;148.27;76.50;;;;;;;0.06;66.47;99473.48;2160356;82;21157;-78
2021/03/26 04:32:18;;;;;;;173.23;77.23;;;;;;;-0.04;66.55;99474.16;2163660;81;21285;-78
2021/03/26 04:35:19;;;;;;;145.03;74.83;;;;;;;-0.10;66.51;99468.63;2169370;82;21134;-78
2021/03/26 04:38:20;;;;;;;149.77;77.13;;;;;;;-0.17;66.71;99469.03;2169268;82;21146;-78
2021/03/26 04:41:21;;;;;;;156.20;74.63;;;;;;;-0.20;67.04;99471.41;2169207;82;21134;-78
2021/03/26 04:44:22;;;;;;;144.53;76.13;;;;;;;-0.23;67.49;99472.49;2168835;82;21142;-77
2021/03/26 04:47:23;;;;;;;153.37;81.57;;;;;;;-0.25;67.59;99470.62;2167987;82;21276;-78
2021/03/26 04:50:24;;;;;;;268.37;78.77;;;;;;;-0.20;68.00;99464.99;2167835;82;21269;-78
2021/03/26 04:53:25;;;;;;;153.90;78.43;;;;;;;-0.15;67.85;99463.61;2167520;82;21272;-78
2021/03/26 04:56:26;;;;;;;160.63;69.50;;;;;;;-0.07;67.93;99470.50;2166793;82;21277;-78
2021/03/26 04:59:27;;;;;;;187.87;80.73;;;;;;;-0.05;67.88;99469.81;2166416;82;21269;-77
2021/03/26 05:02:29;;;;;;;153.77;77.53;;;;;;;0.05;68.01;99474.27;2167755;82;21875;-78
2021/03/26 05:05:30;;;;;;;146.03;77.07;;;;;;;0.19;67.93;99474.34;2167016;82;21249;-78
2021/03/26 05:08:31;;;;;;;157.47;79.67;;;;;;;0.26;67.79;99480.75;2167758;82;21897;-77
2021/03/26 05:11:32;;;;;;;155.63;79.43;;;;;;;0.36;67.99;99485.66;2167657;82;21297;-77
2021/03/26 05:14:33;;;;;;;163.77;88.40;;;;;;;0.49;68.02;99484.34;2167736;82;21253;-77
2021/03/26 05:17:35;;;;;;;155.40;78.77;;;;;;;0.60;67.98;99487.16;2166948;82;21138;-77
2021/03/26 05:20:37;;;;;;;139.00;77.27;;;;;;;0.72;68.03;99487.41;2165939;82;21525;-77
2021/03/26 05:23:38;;;;;;;267.87;90.70;;;;;;;0.83;68.01;99496.66;2166803;82;21269;-77
2021/03/26 05:26:39;;;;;;;143.20;77.83;;;;;;;1.00;68.01;99496.02;2167107;82;21467;-78
2021/03/26 05:29:40;;;;;;;166.47;79.70;;;;;;;1.16;67.83;99494.84;2167347;82;21277;-77
2021/03/26 05:32:41;;;;;;;146.83;79.80;;;;;;;1.24;67.72;99497.86;2162731;82;21265;-78
2021/03/26 05:35:42;;;;;;;144.70;80.03;;;;;;;1.31;67.66;99496.13;2157823;82;21103;-76
2021/03/26 05:38:43;;;;;;;145.23;81.53;;;;;;;1.37;67.73;99497.78;2158165;82;21277;-77
2021/03/26 05:41:44;;;;;;;151.43;80.07;;;;;;;1.45;67.84;99489.22;2158102;82;21127;-77
2021/03/26 05:44:45;;;;;;;157.70;85.17;;;;;;;1.55;67.89;99495.38;2157000;82;21957;-77
2021/03/26 05:47:46;;;;;;;185.97;83.90;;;;;;;1.62;68.04;99493.64;2158046;82;21261;-77
2021/03/26 05:50:48;;;;;;;144.60;78.27;;;;;;;1.69;67.93;99491.91;2157836;82;21289;-77
2021/03/26 05:53:49;;;;;;;176.17;77.80;;;;;;;1.76;67.84;99488.02;2157205;82;21103;-77
2021/03/26 05:56:50;;;;;;;148.77;78.03;;;;;;;1.84;67.82;99490.23;2156558;82;21253;-76
2021/03/26 05:59:51;;;;;;;138.47;77.87;;;;;;;1.93;68.04;99493.72;2158345;82;21593;-78
2021/03/26 06:02:52;;;;;;;149.07;77.87;;;;;;;2.06;67.88;99492.31;2158712;82;22047;-78
2021/03/26 06:05:53;;;;;;;157.23;79.73;;;;;;;2.27;67.84;99501.62;2158481;82;21277;-77
2021/03/26 06:08:54;;;;;;;154.53;90.77;;;;;;;2.49;67.54;99492.95;2158118;82;21847;-79
2021/03/26 06:11:55;;;;;;;239.70;134.00;;;;;;;2.77;67.49;99491.47;2158518;82;21564;-78
2021/03/26 06:14:56;;;;;;;153.20;86.00;;;;;;;3.07;67.42;99492.18;2158305;82;21133;-79
2021/03/26 06:17:57;;;;;;;154.33;87.50;;;;;;;3.38;67.19;99484.70;2158080;82;21146;-79
2021/03/26 06:20:59;;;;;;;154.60;90.50;;;;;;;3.59;66.79;99488.39;2157632;82;21122;-78
2021/03/26 06:24:00;;;;;;;162.43;91.07;;;;;;;3.80;66.79;99485.56;2157021;82;21264;-78
2021/03/26 06:27:01;;;;;;;190.43;95.10;;;;;;;3.99;66.73;99494.20;2157499;82;21127;-79
2021/03/26 06:30:02;;;;;;;164.43;92.23;;;;;;;4.05;66.57;99498.36;2156911;82;21273;-76
2021/03/26 06:33:03;;;;;;;166.63;90.90;;;;;;;4.25;66.35;99498.02;2162016;81;21830;-78
2021/03/26 06:36:05;;;;;;;180.93;86.20;;;;;;;4.46;66.09;99496.46;2168274;82;21450;-79
2021/03/26 06:39:06;;;;;;;163.83;89.33;;;;;;;4.66;66.16;99493.08;2167256;82;21252;-78
2021/03/26 06:42:07;;;;;;;171.37;91.20;;;;;;;4.94;65.93;99501.67;2166795;82;21276;-79
2021/03/26 06:45:08;;;;;;;168.90;91.90;;;;;;;5.18;65.50;99497.98;2167677;82;21248;-79
2021/03/26 06:48:09;;;;;;;184.57;99.13;;;;;;;5.48;64.85;99498.44;2168502;82;21603;-79
2021/03/26 06:51:10;;;;;;;154.67;92.70;;;;;;;5.75;64.46;99499.58;2168860;82;21170;-79
2021/03/26 06:54:11;;;;;;;495.00;115.23;;;;;;;6.05;64.45;99492.20;2168867;82;21272;-78
2021/03/26 06:57:12;;;;;;;154.33;91.40;;;;;;;6.33;64.10;99496.79;2169457;82;21856;-79
2021/03/26 07:00:13;;;;;;;159.37;93.27;;;;;;;6.55;63.74;99497.20;2168582;82;21138;-80
2021/03/26 07:03:14;;;;;;;224.40;96.13;;;;;;;6.81;63.26;99504.66;2168861;82;21551;-80
2021/03/26 07:06:15;;;;;;;170.23;95.93;;;;;;;7.03;62.60;99502.06;2168482;82;21253;-79
2021/03/26 07:09:16;;;;;;;157.80;93.20;;;;;;;7.26;62.06;99504.17;2168522;82;21117;-80
2021/03/26 07:12:18;;;;;;;151.03;92.40;;;;;;;7.45;61.60;99510.89;2169099;82;21178;-79
2021/03/26 07:15:19;;;;;;;161.77;96.03;;;;;;;7.67;61.13;99512.52;2169465;82;21240;-80
2021/03/26 07:18:20;;;;;;;184.33;100.13;;;;;;;7.86;60.99;99514.92;2168725;82;21126;-79
2021/03/26 07:21:21;;;;;;;182.60;105.63;;;;;;;8.21;60.65;99517.36;2168958;82;21125;-80
2021/03/26 07:24:22;;;;;;;620.67;132.27;;;;;;;8.59;59.95;99520.30;2168097;82;21119;-77
2021/03/26 07:27:23;;;;;;;185.63;107.03;;;;;;;8.98;59.20;99523.66;2168659;82;21242;-79
2021/03/26 07:30:25;;;;;;;185.63;108.20;;;;;;;9.20;58.61;99518.22;2168049;82;21293;-79
2021/03/26 07:33:26;;;;;;;213.13;114.33;;;;;;;9.45;58.50;99520.66;2172170;81;21138;-79
2021/03/26 07:36:27;;;;;;;209.93;118.57;;;;;;;9.80;57.96;99519.42;2176081;81;21260;-79
2021/03/26 07:39:28;;;;;;;201.37;117.77;;;;;;;10.10;57.17;99520.19;2176018;81;21102;-78
2021/03/26 07:42:29;;;;;;;413.73;106.57;;;;;;;10.38;56.69;99517.84;2175796;81;21248;-78
2021/03/26 07:45:30;;;;;;;151.63;96.00;;;;;;;10.58;55.77;99514.41;2174907;81;21200;-78
2021/03/26 07:48:31;;;;;;;183.70;98.77;;;;;;;10.80;55.77;99507.92;2175240;81;21552;-79
2021/03/26 07:51:33;;;;;;;136.68;88.95;;;;;;;11.08;55.30;99502.42;2175595;81;21283;-78
2021/03/26 07:54:35;;;;;;;132.57;84.45;;;;;;;11.39;54.30;99509.16;2176292;81;21252;-80
2021/03/26 07:57:36;;;;;;;132.67;85.72;;;;;;;11.58;53.16;99500.36;2176096;81;21261;-79
2021/03/26 08:00:37;;;;;;;125.72;83.10;;;;;;;11.72;53.85;99504.09;2175627;81;21161;-79
2021/03/26 08:03:38;;;;;;;119.53;80.80;;;;;;;12.01;53.37;99504.20;2175731;81;21545;-79
2021/03/26 08:06:39;;;;;;;102.58;72.40;;;;;;;12.25;53.08;99501.55;2176051;81;21244;-80
2021/03/26 08:09:40;;;;;;;98.07;65.55;;;;;;;12.44;52.00;99500.97;2177449;81;21102;-82
2021/03/26 08:12:41;;;;;;;100.27;68.83;;;;;;;12.64;51.61;99500.83;2176707;81;21571;-80
2021/03/26 08:15:42;;;;;;;98.85;67.47;;;;;;;12.81;51.19;99506.30;2176186;81;21436;-79
2021/03/26 08:18:43;;;;;;;103.00;69.00;;;;;;;13.05;50.76;99511.89;2175877;81;21292;-79
2021/03/26 08:21:44;;;;;;;119.02;71.47;;;;;;;13.29;50.29;99515.27;2176106;81;21129;-80
2021/03/26 08:24:45;;;;;;;109.60;65.63;;;;;;;13.45;49.96;99513.69;2176903;81;21248;-80
2021/03/26 08:27:46;;;;;;;93.70;66.25;;;;;;;13.55;49.21;99517.30;2176806;81;22003;-79
2021/03/26 08:30:47;;;;;;;97.42;63.38;;;;;;;13.72;48.43;99518.34;2175784;81;21288;-81
2021/03/26 08:33:48;;;;;;;108.90;70.17;;;;;;;13.89;48.17;99522.48;2175748;81;21304;-80
2021/03/26 08:36:49;;;;;;;102.27;70.55;;;;;;;14.19;47.98;99532.36;2176226;81;21803;-79
2021/03/26 08:39:50;;;;;;;122.20;63.38;;;;;;;14.54;47.63;99530.91;2176529;81;21252;-80
2021/03/26 08:42:52;;;;;;;345.07;65.40;;;;;;;14.69;46.72;99522.25;2175559;81;21134;-79
2021/03/26 08:45:53;;;;;;;88.37;56.90;;;;;;;14.69;45.85;99524.00;2176396;81;21252;-79
2021/03/26 08:48:54;;;;;;;138.47;55.80;;;;;;;14.74;46.02;99527.53;2175905;82;21248;-79
2021/03/26 08:51:55;;;;;;;122.30;49.13;;;;;;;14.84;45.16;99532.88;2175341;81;21967;-80
2021/03/26 08:54:56;;;;;;;76.30;47.20;;;;;;;14.88;43.68;99526.77;2175547;81;21255;-79
2021/03/26 08:57:57;;;;;;;202.97;55.75;;;;;;;14.91;42.89;99528.53;2175944;81;21281;-76
2021/03/26 09:00:58;;;;;;;68.62;46.37;;;;;;;14.97;43.91;99527.25;2174720;81;21260;-79
2021/03/26 09:03:59;;;;;;;61.73;46.77;;;;;;;15.00;42.60;99525.95;2173729;81;21622;-78
2021/03/26 09:07:00;;;;;;;64.32;45.50;;;;;;;14.97;42.60;99530.77;2173664;82;21126;-79
2021/03/26 09:10:02;;;;;;;68.12;48.48;;;;;;;15.00;42.47;99539.09;2174386;81;21252;-80
2021/03/26 09:13:03;;;;;;;86.55;55.88;;;;;;;15.05;42.39;99545.26;2174259;81;21125;-79
2021/03/26 09:16:04;;;;;;;86.15;53.28;;;;;;;15.10;42.88;99547.48;2174843;81;21555;-79
2021/03/26 09:19:05;;;;;;;77.20;54.00;;;;;;;15.19;43.02;99542.26;2175067;81;21240;-79
2021/03/26 09:22:06;;;;;;;89.37;50.70;;;;;;;15.30;42.57;99547.56;2175116;81;21125;-79
2021/03/26 09:25:07;;;;;;;140.52;51.37;;;;;;;15.29;42.42;99549.31;2175885;81;21228;-79
2021/03/26 09:28:08;;;;;;;79.42;49.08;;;;;;;15.20;42.28;99546.64;2176156;81;21256;-81
2021/03/26 09:31:10;;;;;;;67.58;45.33;;;;;;;15.06;42.24;99550.96;2147573;82;21134;-80
2021/03/26 09:34:11;;;;;;;77.22;44.95;;;;;;;14.83;41.40;99553.47;2175016;81;21295;-81
2021/03/26 09:37:12;;;;;;;71.00;42.33;;;;;;;14.50;41.46;99549.27;2175959;81;21252;-81
2021/03/26 09:40:13;;;;;;;76.95;38.13;;;;;;;14.30;41.31;99546.02;2175241;81;21284;-80
2021/03/26 09:43:15;;;;;;;65.45;37.10;;;;;;;14.20;41.21;99545.50;2175393;81;21129;-80
2021/03/26 09:46:16;;;;;;;62.00;40.52;;;;;;;14.15;40.94;99551.15;2176094;81;21137;-80
2021/03/26 09:49:17;;;;;;;86.92;48.65;;;;;;;14.08;41.19;99549.34;2176002;81;21543;-80
2021/03/26 09:52:18;;;;;;;72.40;43.52;;;;;;;13.99;42.08;99549.25;2175188;81;21145;-80
2021/03/26 09:55:21;;;;;;;65.08;42.65;;;;;;;13.86;42.23;99541.66;2175846;81;21252;-82
2021/03/26 09:58:22;;;;;;;154.57;48.80;;;;;;;13.64;41.41;99544.94;2176109;81;21126;-81
2021/03/26 10:01:23;;;;;;;84.30;41.10;;;;;;;13.58;42.09;99547.06;2176883;81;21288;-80
2021/03/26 10:04:24;;;;;;;63.10;45.00;;;;;;;13.58;42.14;99548.38;2176380;81;21146;-80
2021/03/26 10:07:29;;;;;;;71.45;45.85;;;;;;;13.51;42.41;99540.42;2177346;81;21268;-81
2021/03/26 10:10:44;;;;;;;63.58;43.15;;;;;;;13.42;42.46;99543.82;2178081;82;21215;-81
2021/03/26 10:13:45;;;;;;;65.00;43.60;;;;;;;13.29;42.67;99548.04;2176803;81;21252;-81
2021/03/26 10:16:46;;;;;;;65.95;42.60;;;;;;;13.19;42.86;99546.17;2176760;81;21450;-80
2021/03/26 10:19:47;;;;;;;65.55;43.48;;;;;;;13.10;43.45;99546.45;2177136;81;21540;-81
2021/03/26 10:22:48;;;;;;;175.68;50.00;;;;;;;13.02;43.45;99548.54;2176252;81;21241;-81
2021/03/26 10:25:49;;;;;;;83.95;47.53;;;;;;;12.94;43.46;99555.81;2176366;81;21265;-80
2021/03/26 10:28:51;;;;;;;68.85;44.88;;;;;;;12.85;43.77;99553.07;2177273;81;21268;-81
2021/03/26 10:31:52;;;;;;;76.45;46.95;;;;;;;12.80;43.86;99549.08;2176200;82;21332;-81
2021/03/26 10:34:53;;;;;;;113.55;46.48;;;;;;;12.77;44.22;99549.03;2164907;81;21151;-79
2021/03/26 10:37:54;;;;;;;68.07;44.70;;;;;;;12.81;44.09;99553.45;2159310;82;21246;-82
2021/03/26 10:40:55;;;;;;;67.27;47.10;;;;;;;12.84;44.38;99545.64;2158995;82;21139;-79
2021/03/26 10:43:56;;;;;;;79.42;48.52;;;;;;;12.89;44.26;99544.39;2158767;82;21448;-81
2021/03/26 10:46:57;;;;;;;71.42;46.63;;;;;;;12.93;44.51;99544.88;2159202;82;21233;-81
2021/03/26 10:49:58;;;;;;;529.00;78.52;;;;;;;13.02;44.38;99548.54;2159442;82;21281;-80
2021/03/26 10:52:59;;;;;;;79.35;48.55;;;;;;;13.16;44.56;99543.47;2159603;82;21135;-79
2021/03/26 10:56:00;;;;;;;76.50;46.18;;;;;;;13.37;44.00;99543.77;2159576;82;21134;-80
2021/03/26 10:59:04;;;;;;;70.08;47.80;;;;;;;13.67;43.86;99534.47;2159284;82;21585;-79
2021/03/26 11:02:05;;;;;;;73.65;46.88;;;;;;;14.03;43.40;99537.48;2159287;82;21268;-80
2021/03/26 11:05:06;;;;;;;84.75;45.78;;;;;;;14.34;42.79;99528.11;2158945;82;21158;-82
2021/03/26 11:08:07;;;;;;;96.22;45.08;;;;;;;14.57;41.48;99528.30;2159312;82;21268;-76
2021/03/26 11:11:08;;;;;;;98.12;42.78;;;;;;;14.81;41.10;99523.67;2138245;82;21296;-80
2021/03/26 11:14:09;;;;;;;62.98;42.13;;;;;;;15.07;39.94;99521.61;2160268;82;21094;-81
2021/03/26 11:17:10;;;;;;;59.50;42.45;;;;;;;15.22;38.39;99509.40;2159752;82;21601;-81
2021/03/26 11:20:11;;;;;;;214.80;51.85;;;;;;;15.21;37.65;99502.38;2159667;82;21155;-79
2021/03/26 11:23:13;;;;;;;65.45;43.60;;;;;;;15.23;37.89;99509.84;2159450;82;21126;-81
2021/03/26 11:26:14;;;;;;;69.58;36.50;;;;;;;15.37;38.46;99512.95;2160562;82;21149;-80
2021/03/26 11:29:15;;;;;;;48.50;35.58;;;;;;;15.52;37.49;99513.00;2160442;82;21265;-80
2021/03/26 11:32:16;;;;;;;51.88;36.85;;;;;;;15.69;37.46;99507.84;2157548;82;21519;-73
2021/03/26 11:35:17;;;;;;;188.20;43.40;;;;;;;15.89;37.27;99504.80;2171595;82;21260;-78
2021/03/26 11:38:18;;;;;;;78.45;34.75;;;;;;;16.15;36.68;99500.85;2177137;81;21141;-78
2021/03/26 11:41:19;;;;;;;68.95;35.88;;;;;;;16.39;36.08;99496.00;2177367;81;21248;-81
2021/03/26 11:44:21;;;;;;;53.17;34.60;;;;;;;16.59;35.57;99493.37;2176800;81;21126;-81
2021/03/26 11:47:22;;;;;;;47.67;31.77;;;;;;;16.77;35.00;99492.04;2177026;81;21248;-79
2021/03/26 11:50:23;;;;;;;243.20;47.33;;;;;;;16.81;34.56;99487.19;2177515;81;21296;-79
2021/03/26 11:53:24;;;;;;;56.40;37.38;;;;;;;16.75;34.60;99485.89;2177589;81;21330;-80
2021/03/26 11:56:25;;;;;;;213.37;40.60;;;;;;;16.71;34.74;99488.98;2177606;81;21119;-80
2021/03/26 11:59:26;;;;;;;57.25;37.88;;;;;;;16.58;34.59;99485.02;2177191;82;21284;-80
2021/03/26 12:02:27;;;;;;;52.93;37.55;;;;;;;16.56;34.62;99484.59;2177048;81;21090;-80
2021/03/26 12:05:28;;;;;;;62.75;37.03;;;;;;;16.55;34.82;99485.47;2176785;81;21574;-80
2021/03/26 12:08:29;;;;;;;65.67;36.53;;;;;;;16.55;34.27;99480.64;2176384;81;21122;-78
2021/03/26 12:11:30;;;;;;;54.73;36.13;;;;;;;16.48;34.35;99474.95;2175960;81;21284;-79
2021/03/26 12:14:31;;;;;;;58.05;35.75;;;;;;;16.37;34.27;99470.09;2177059;82;21109;-81
2021/03/26 12:17:33;;;;;;;73.70;35.48;;;;;;;16.34;34.89;99463.08;2176058;82;21125;-79
2021/03/26 12:20:34;;;;;;;135.45;41.83;;;;;;;16.62;34.62;99464.38;2176253;81;21253;-81
2021/03/26 12:23:35;;;;;;;51.63;34.18;;;;;;;16.80;34.53;99459.08;2176775;82;21264;-79
2021/03/26 12:26:36;;;;;;;50.10;34.23;;;;;;;16.98;33.72;99453.73;2175309;82;21149;-81
2021/03/26 12:29:38;;;;;;;54.80;33.40;;;;;;;17.12;33.65;99445.31;2175205;81;21260;-80
2021/03/26 12:32:39;;;;;;;39.03;29.57;;;;;;;17.17;33.57;99443.53;2175091;82;21664;-79
2021/03/26 12:35:40;;;;;;;64.55;32.48;;;;;;;17.06;32.81;99438.75;2160876;81;21291;-80
2021/03/26 12:38:41;;;;;;;51.02;35.55;;;;;;;16.90;33.32;99440.14;2157574;82;21246;-79
2021/03/26 12:41:42;;;;;;;40.60;29.95;;;;;;;16.69;33.76;99434.51;2156874;82;21157;-79
2021/03/26 12:44:43;;;;;;;58.45;32.73;;;;;;;16.65;33.42;99435.37;2157703;82;21138;-78
2021/03/26 12:50:48;;;;;;;49.25;33.45;;;;;;;16.43;34.25;99423.54;2206822;79;22343;-79
2021/03/26 12:53:53;;;;;;;45.58;32.70;;;;;;;16.58;34.25;99429.23;2176101;82;21268;-79
2021/03/26 12:56:52;;;;;;;43.57;31.70;;;;;;;16.59;33.79;99429.67;2176339;82;21233;-78
2021/03/26 12:59:53;;;;;;;42.48;32.10;;;;;;;16.45;33.50;99415.63;2176802;81;21257;-78
2021/03/26 13:02:54;;;;;;;45.03;31.93;;;;;;;16.52;33.57;99413.00;2175712;82;21244;-78
2021/03/26 13:05:55;;;;;;;44.50;33.30;;;;;;;16.61;34.02;99416.49;2174639;82;21143;-77
2021/03/26 13:08:56;;;;;;;57.35;34.75;;;;;;;16.68;34.24;99412.55;2174213;82;21304;-78
2021/03/26 13:12:00;;;;;;;50.55;32.53;;;;;;;16.83;33.82;99408.53;2173993;82;21610;-77
2021/03/26 13:15:01;;;;;;;;;;;;;;;17.01;33.72;99408.00;2177301;81;21233;-77
2021/03/26 13:18:03;;;;;;;54.83;34.18;;;;;;;17.08;33.53;99400.05;2174155;82;20157;-77
2021/03/26 13:21:04;;;;;;;61.73;32.78;;;;;;;17.18;33.14;99400.44;2173198;82;21241;-77
2021/03/26 13:24:05;;;;;;;48.98;35.05;;;;;;;17.13;32.63;99391.67;2174671;82;21833;-77
2021/03/26 13:27:06;;;;;;;48.55;34.08;;;;;;;17.22;33.62;99390.73;2175641;82;21253;-77
2021/03/26 13:30:07;;;;;;;54.95;36.70;;;;;;;17.22;33.60;99392.50;2174629;82;21170;-77
2021/03/26 13:33:08;;;;;;;183.68;44.80;;;;;;;17.14;33.27;99394.74;2175264;82;21150;-77
2021/03/26 13:36:09;;;;;;;42.10;34.85;;;;;;;17.00;33.19;99388.67;2175112;82;21118;-77
2021/03/26 13:39:10;;;;;;;52.20;36.63;;;;;;;16.81;33.77;99390.97;2175289;82;21232;-78
2021/03/26 13:42:11;;;;;;;47.03;34.10;;;;;;;16.81;33.82;99387.88;2176252;82;21244;-77
2021/03/26 13:45:12;;;;;;;63.13;33.20;;;;;;;16.79;33.98;99388.77;2176369;82;21556;-78
2021/03/26 13:48:14;;;;;;;60.70;37.05;;;;;;;16.76;34.17;99380.88;2175157;81;21142;-78
2021/03/26 13:51:15;;;;;;;60.05;37.42;;;;;;;16.79;34.42;99378.23;2159581;82;21261;-78